Portada
METAR-TAF:

METAR-TAF

Aeroports :

Milwaukee, Wisconsin, Estats Units d'Amèrica

latitud: 42-57-18N, longitud: 087-54-16W, altitud: 220 m

Observació

L'informe es va fer fa 42 minuts, a les 08:52 UTC
Vent calma
Temperatura 4°C
Humitat 60%
Pressió 1017 hPa
Visibilitat: 16.1 km
Cel clar

METAR: KMKE 220852Z 00000KT 10SM CLR 04/M03 A3002 RMK AO2 SLP169 T00391028 57008

Hora: 04:34 (09:34 UTC)

Pronòstic

L'informe es va fer fa 26 minuts, a les 09:08 UTC
Pronòstic vàlid del 22 a les 09 UTC al 23 a les 12 UTC
Vent 5 kt amb direcció variable
Visibilitat: 10 km
Escasses núvols a una alçada de 25000 ft
A partir de les 22 a les 1400 UTC
Vent 7 kt del Oest
Visibilitat: 10 km
Escasses núvols a una alçada de 25000 ft
A partir de les 23 a les 0400 UTC
Vent 12 kt del Nord-Oest
Visibilitat: 10 km
Escasses núvols a una alçada de 25000 ft

TAF: KMKE 220908Z 2209/2312 VRB05KT P6SM FEW250 FM221400 27007KT P6SM FEW250 FM230400 32012KT P6SM FEW250

Observacions i pronòstics meteorològics de més de 4000 aeroports (METAR i TAF).

Les estacions disponibles són els punts grocs i vermells al mapa.

Posi el ratolí al punt desitjat per veure el nom de l'estació.

Feu clic per veure les observacions i els pronòstics meteorològics.

Per canviar el mapa: feu clic els botons verds amb una creu de color negre per apropar; al botó verd amb un guió per allunyar la imatge; o en les fletxes verdes per a mapes adjacents.


METAR-TAF: